sensor_id;sensor_type;location;lat;lon;timestamp;P1;durP1;ratioP1;P2;durP2;ratioP2
10537;SDS011;5317;49.048;8.468;2023-01-31T00:00:22;7.00;;;6.30;;
10537;SDS011;5317;49.048;8.468;2023-01-31T00:02:50;11.83;;;7.90;;
10537;SDS011;5317;49.048;8.468;2023-01-31T00:05:20;6.80;;;5.70;;
10537;SDS011;5317;49.048;8.468;2023-01-31T00:07:48;8.27;;;6.03;;
10537;SDS011;5317;49.048;8.468;2023-01-31T00:10:15;9.00;;;6.13;;
10537;SDS011;5317;49.048;8.468;2023-01-31T00:12:46;6.80;;;5.83;;
10537;SDS011;5317;49.048;8.468;2023-01-31T00:15:13;7.03;;;5.33;;
10537;SDS011;5317;49.048;8.468;2023-01-31T00:17:40;9.20;;;5.93;;
10537;SDS011;5317;49.048;8.468;2023-01-31T00:20:10;8.33;;;5.60;;
10537;SDS011;5317;49.048;8.468;2023-01-31T00:22:37;8.32;;;5.78;;
10537;SDS011;5317;49.048;8.468;2023-01-31T00:25:06;7.37;;;5.13;;
10537;SDS011;5317;49.048;8.468;2023-01-31T00:27:39;7.63;;;5.87;;
10537;SDS011;5317;49.048;8.468;2023-01-31T00:30:06;7.30;;;5.53;;
10537;SDS011;5317;49.048;8.468;2023-01-31T00:32:39;8.17;;;5.30;;
10537;SDS011;5317;49.048;8.468;2023-01-31T00:35:06;7.23;;;5.80;;
10537;SDS011;5317;49.048;8.468;2023-01-31T00:37:36;7.37;;;5.03;;
10537;SDS011;5317;49.048;8.468;2023-01-31T00:40:04;7.90;;;5.55;;
10537;SDS011;5317;49.048;8.468;2023-01-31T00:42:35;7.50;;;4.82;;
10537;SDS011;5317;49.048;8.468;2023-01-31T00:45:02;8.80;;;4.97;;
10537;SDS011;5317;49.048;8.468;2023-01-31T00:47:30;8.73;;;5.00;;
10537;SDS011;5317;49.048;8.468;2023-01-31T00:49:59;8.23;;;5.72;;
10537;SDS011;5317;49.048;8.468;2023-01-31T00:52:26;8.90;;;5.40;;
10537;SDS011;5317;49.048;8.468;2023-01-31T00:54:52;8.43;;;4.87;;
10537;SDS011;5317;49.048;8.468;2023-01-31T00:57:20;10.07;;;7.27;;
10537;SDS011;5317;49.048;8.468;2023-01-31T00:59:47;7.32;;;5.45;;
10537;SDS011;5317;49.048;8.468;2023-01-31T01:02:14;6.77;;;5.13;;
10537;SDS011;5317;49.048;8.468;2023-01-31T01:04:41;7.53;;;5.67;;
10537;SDS011;5317;49.048;8.468;2023-01-31T01:07:08;8.87;;;5.73;;
10537;SDS011;5317;49.048;8.468;2023-01-31T01:09:42;6.17;;;5.57;;
10537;SDS011;5317;49.048;8.468;2023-01-31T01:12:09;9.63;;;5.50;;
10537;SDS011;5317;49.048;8.468;2023-01-31T01:14:40;8.23;;;6.67;;
10537;SDS011;5317;49.048;8.468;2023-01-31T01:17:06;9.97;;;6.47;;
10537;SDS011;5317;49.048;8.468;2023-01-31T01:19:33;7.67;;;6.80;;
10537;SDS011;5317;49.048;8.468;2023-01-31T01:22:06;8.80;;;6.73;;
10537;SDS011;5317;49.048;8.468;2023-01-31T01:24:33;8.55;;;5.70;;
10537;SDS011;5317;49.048;8.468;2023-01-31T01:27:00;8.98;;;6.63;;
10537;SDS011;5317;49.048;8.468;2023-01-31T01:29:32;8.63;;;6.07;;
10537;SDS011;5317;49.048;8.468;2023-01-31T01:32:01;7.17;;;5.93;;
10537;SDS011;5317;49.048;8.468;2023-01-31T01:34:32;8.07;;;6.80;;
10537;SDS011;5317;49.048;8.468;2023-01-31T01:36:59;8.10;;;6.50;;
10537;SDS011;5317;49.048;8.468;2023-01-31T01:39:35;11.30;;;6.23;;
10537;SDS011;5317;49.048;8.468;2023-01-31T01:42:04;7.30;;;5.95;;
10537;SDS011;5317;49.048;8.468;2023-01-31T01:44:42;6.85;;;5.75;;
10537;SDS011;5317;49.048;8.468;2023-01-31T01:47:17;8.23;;;5.67;;
10537;SDS011;5317;49.048;8.468;2023-01-31T01:49:50;8.52;;;5.65;;
10537;SDS011;5317;49.048;8.468;2023-01-31T01:52:20;7.13;;;5.80;;
10537;SDS011;5317;49.048;8.468;2023-01-31T01:54:49;7.95;;;6.25;;
10537;SDS011;5317;49.048;8.468;2023-01-31T01:57:20;7.60;;;5.88;;
10537;SDS011;5317;49.048;8.468;2023-01-31T01:59:54;6.37;;;5.60;;
10537;SDS011;5317;49.048;8.468;2023-01-31T02:02:45;6.67;;;5.97;;
10537;SDS011;5317;49.048;8.468;2023-01-31T02:05:19;7.90;;;5.53;;
10537;SDS011;5317;49.048;8.468;2023-01-31T02:07:52;6.67;;;5.30;;
10537;SDS011;5317;49.048;8.468;2023-01-31T02:10:21;6.30;;;5.70;;
10537;SDS011;5317;49.048;8.468;2023-01-31T02:12:52;9.65;;;6.60;;
10537;SDS011;5317;49.048;8.468;2023-01-31T02:15:19;7.88;;;5.80;;
10537;SDS011;5317;49.048;8.468;2023-01-31T02:17:49;7.30;;;5.73;;
10537;SDS011;5317;49.048;8.468;2023-01-31T02:20:23;7.25;;;5.95;;
10537;SDS011;5317;49.048;8.468;2023-01-31T02:26:05;11.55;;;6.63;;
10537;SDS011;5317;49.048;8.468;2023-01-31T02:29:14;6.97;;;6.28;;
10537;SDS011;5317;49.048;8.468;2023-01-31T02:35:02;10.82;;;6.28;;
10537;SDS011;5317;49.048;8.468;2023-01-31T02:37:46;10.32;;;6.70;;
10537;SDS011;5317;49.048;8.468;2023-01-31T02:40:24;12.68;;;7.03;;
10537;SDS011;5317;49.048;8.468;2023-01-31T02:43:05;9.13;;;6.78;;
10537;SDS011;5317;49.048;8.468;2023-01-31T02:45:43;8.47;;;6.77;;
10537;SDS011;5317;49.048;8.468;2023-01-31T02:48:18;10.27;;;6.45;;
10537;SDS011;5317;49.048;8.468;2023-01-31T02:50:59;9.20;;;6.83;;
10537;SDS011;5317;49.048;8.468;2023-01-31T02:53:33;10.57;;;7.50;;
10537;SDS011;5317;49.048;8.468;2023-01-31T02:56:05;10.73;;;7.27;;
10537;SDS011;5317;49.048;8.468;2023-01-31T02:58:44;12.10;;;7.00;;
10537;SDS011;5317;49.048;8.468;2023-01-31T03:01:21;9.35;;;7.13;;
10537;SDS011;5317;49.048;8.468;2023-01-31T03:03:56;12.47;;;7.80;;
10537;SDS011;5317;49.048;8.468;2023-01-31T03:06:47;11.03;;;7.27;;
10537;SDS011;5317;49.048;8.468;2023-01-31T03:09:27;9.48;;;6.78;;
10537;SDS011;5317;49.048;8.468;2023-01-31T03:12:05;8.07;;;6.55;;
10537;SDS011;5317;49.048;8.468;2023-01-31T03:14:44;10.43;;;7.38;;
10537;SDS011;5317;49.048;8.468;2023-01-31T03:17:20;11.68;;;8.05;;
10537;SDS011;5317;49.048;8.468;2023-01-31T03:19:57;11.32;;;7.45;;
10537;SDS011;5317;49.048;8.468;2023-01-31T03:22:33;8.57;;;6.97;;
10537;SDS011;5317;49.048;8.468;2023-01-31T03:25:03;8.77;;;7.25;;
10537;SDS011;5317;49.048;8.468;2023-01-31T03:27:32;12.35;;;8.18;;
10537;SDS011;5317;49.048;8.468;2023-01-31T03:30:01;12.07;;;7.57;;
10537;SDS011;5317;49.048;8.468;2023-01-31T03:32:35;11.73;;;7.23;;
10537;SDS011;5317;49.048;8.468;2023-01-31T03:35:06;11.20;;;8.13;;
10537;SDS011;5317;49.048;8.468;2023-01-31T03:37:36;11.47;;;7.73;;
10537;SDS011;5317;49.048;8.468;2023-01-31T03:40:09;10.10;;;7.97;;
10537;SDS011;5317;49.048;8.468;2023-01-31T03:42:39;11.52;;;8.50;;
10537;SDS011;5317;49.048;8.468;2023-01-31T03:45:11;13.00;;;8.80;;
10537;SDS011;5317;49.048;8.468;2023-01-31T03:47:44;11.25;;;8.02;;
10537;SDS011;5317;49.048;8.468;2023-01-31T03:50:15;13.13;;;9.80;;
10537;SDS011;5317;49.048;8.468;2023-01-31T03:52:48;14.43;;;9.18;;
10537;SDS011;5317;49.048;8.468;2023-01-31T03:55:21;11.68;;;9.25;;
10537;SDS011;5317;49.048;8.468;2023-01-31T03:57:53;12.68;;;8.35;;
10537;SDS011;5317;49.048;8.468;2023-01-31T04:00:22;12.93;;;8.65;;
10537;SDS011;5317;49.048;8.468;2023-01-31T04:02:54;14.80;;;8.93;;
10537;SDS011;5317;49.048;8.468;2023-01-31T04:05:24;13.80;;;8.88;;
10537;SDS011;5317;49.048;8.468;2023-01-31T04:07:56;12.93;;;9.10;;
10537;SDS011;5317;49.048;8.468;2023-01-31T04:10:23;13.50;;;8.97;;
10537;SDS011;5317;49.048;8.468;2023-01-31T04:12:50;12.87;;;8.77;;
10537;SDS011;5317;49.048;8.468;2023-01-31T04:15:18;11.77;;;8.98;;
10537;SDS011;5317;49.048;8.468;2023-01-31T04:17:45;14.00;;;9.52;;
10537;SDS011;5317;49.048;8.468;2023-01-31T04:20:12;14.23;;;9.05;;
10537;SDS011;5317;49.048;8.468;2023-01-31T04:22:40;13.07;;;9.40;;
10537;SDS011;5317;49.048;8.468;2023-01-31T04:25:08;13.00;;;9.13;;
10537;SDS011;5317;49.048;8.468;2023-01-31T04:27:36;14.27;;;9.43;;
10537;SDS011;5317;49.048;8.468;2023-01-31T04:30:03;9.67;;;7.83;;
10537;SDS011;5317;49.048;8.468;2023-01-31T04:32:31;13.55;;;8.77;;
10537;SDS011;5317;49.048;8.468;2023-01-31T04:34:58;12.68;;;9.40;;
10537;SDS011;5317;49.048;8.468;2023-01-31T04:37:26;12.45;;;9.30;;
10537;SDS011;5317;49.048;8.468;2023-01-31T04:39:53;13.55;;;8.73;;
10537;SDS011;5317;49.048;8.468;2023-01-31T04:42:21;13.95;;;9.50;;
10537;SDS011;5317;49.048;8.468;2023-01-31T04:44:48;11.98;;;8.55;;
10537;SDS011;5317;49.048;8.468;2023-01-31T04:47:17;14.20;;;9.07;;
10537;SDS011;5317;49.048;8.468;2023-01-31T04:49:44;13.10;;;8.43;;
10537;SDS011;5317;49.048;8.468;2023-01-31T04:52:11;14.55;;;9.40;;
10537;SDS011;5317;49.048;8.468;2023-01-31T04:54:38;12.43;;;9.27;;
10537;SDS011;5317;49.048;8.468;2023-01-31T04:57:05;12.13;;;8.20;;
10537;SDS011;5317;49.048;8.468;2023-01-31T04:59:34;15.43;;;9.52;;
10537;SDS011;5317;49.048;8.468;2023-01-31T05:02:01;11.90;;;8.65;;
10537;SDS011;5317;49.048;8.468;2023-01-31T05:04:27;11.93;;;9.27;;
10537;SDS011;5317;49.048;8.468;2023-01-31T05:06:54;12.13;;;8.93;;
10537;SDS011;5317;49.048;8.468;2023-01-31T05:09:22;13.82;;;9.50;;
10537;SDS011;5317;49.048;8.468;2023-01-31T05:11:49;14.35;;;8.73;;
10537;SDS011;5317;49.048;8.468;2023-01-31T05:14:15;14.02;;;8.68;;
10537;SDS011;5317;49.048;8.468;2023-01-31T05:16:46;11.35;;;8.48;;
10537;SDS011;5317;49.048;8.468;2023-01-31T05:19:13;14.52;;;8.90;;
10537;SDS011;5317;49.048;8.468;2023-01-31T05:21:40;12.55;;;9.77;;
10537;SDS011;5317;49.048;8.468;2023-01-31T05:24:19;15.07;;;9.70;;
10537;SDS011;5317;49.048;8.468;2023-01-31T05:26:46;12.25;;;9.43;;
10537;SDS011;5317;49.048;8.468;2023-01-31T05:29:15;13.15;;;9.05;;
10537;SDS011;5317;49.048;8.468;2023-01-31T05:31:42;15.32;;;9.35;;
10537;SDS011;5317;49.048;8.468;2023-01-31T05:34:10;12.75;;;9.50;;
10537;SDS011;5317;49.048;8.468;2023-01-31T05:36:39;11.57;;;8.18;;
10537;SDS011;5317;49.048;8.468;2023-01-31T05:39:06;12.95;;;8.52;;
10537;SDS011;5317;49.048;8.468;2023-01-31T05:41:33;15.90;;;9.37;;
10537;SDS011;5317;49.048;8.468;2023-01-31T05:44:00;13.30;;;9.75;;
10537;SDS011;5317;49.048;8.468;2023-01-31T05:46:27;13.63;;;9.05;;
10537;SDS011;5317;49.048;8.468;2023-01-31T05:48:55;15.18;;;9.88;;
10537;SDS011;5317;49.048;8.468;2023-01-31T05:51:25;12.40;;;9.52;;
10537;SDS011;5317;49.048;8.468;2023-01-31T05:53:52;13.73;;;9.85;;
10537;SDS011;5317;49.048;8.468;2023-01-31T05:56:19;10.95;;;9.00;;
10537;SDS011;5317;49.048;8.468;2023-01-31T05:58:46;13.40;;;9.85;;
10537;SDS011;5317;49.048;8.468;2023-01-31T06:01:15;13.90;;;9.40;;
10537;SDS011;5317;49.048;8.468;2023-01-31T06:03:42;14.05;;;9.90;;
10537;SDS011;5317;49.048;8.468;2023-01-31T06:06:09;14.70;;;10.57;;
10537;SDS011;5317;49.048;8.468;2023-01-31T06:08:37;16.35;;;9.88;;
10537;SDS011;5317;49.048;8.468;2023-01-31T06:11:06;17.17;;;10.38;;
10537;SDS011;5317;49.048;8.468;2023-01-31T06:13:35;16.10;;;9.77;;
10537;SDS011;5317;49.048;8.468;2023-01-31T06:16:02;18.73;;;11.50;;
10537;SDS011;5317;49.048;8.468;2023-01-31T06:18:29;19.33;;;11.50;;
10537;SDS011;5317;49.048;8.468;2023-01-31T06:20:56;16.10;;;11.30;;
10537;SDS011;5317;49.048;8.468;2023-01-31T06:23:23;17.67;;;11.95;;
10537;SDS011;5317;49.048;8.468;2023-01-31T06:25:52;17.33;;;10.98;;
10537;SDS011;5317;49.048;8.468;2023-01-31T06:28:20;21.35;;;12.07;;
10537;SDS011;5317;49.048;8.468;2023-01-31T06:30:48;18.02;;;11.55;;
10537;SDS011;5317;49.048;8.468;2023-01-31T06:33:15;21.77;;;11.60;;
10537;SDS011;5317;49.048;8.468;2023-01-31T06:35:42;18.13;;;11.30;;
10537;SDS011;5317;49.048;8.468;2023-01-31T06:38:09;22.05;;;11.90;;
10537;SDS011;5317;49.048;8.468;2023-01-31T06:40:37;21.33;;;12.77;;
10537;SDS011;5317;49.048;8.468;2023-01-31T06:43:05;18.52;;;11.73;;
10537;SDS011;5317;49.048;8.468;2023-01-31T06:45:32;18.63;;;11.38;;
10537;SDS011;5317;49.048;8.468;2023-01-31T06:47:59;19.85;;;10.98;;
10537;SDS011;5317;49.048;8.468;2023-01-31T06:50:26;19.75;;;11.43;;
10537;SDS011;5317;49.048;8.468;2023-01-31T06:52:53;22.15;;;10.88;;
10537;SDS011;5317;49.048;8.468;2023-01-31T06:55:20;21.00;;;11.10;;
10537;SDS011;5317;49.048;8.468;2023-01-31T06:57:47;22.02;;;12.10;;
10537;SDS011;5317;49.048;8.468;2023-01-31T07:00:16;19.42;;;11.73;;
10537;SDS011;5317;49.048;8.468;2023-01-31T07:02:44;17.88;;;12.70;;
10537;SDS011;5317;49.048;8.468;2023-01-31T07:05:11;18.37;;;10.93;;
10537;SDS011;5317;49.048;8.468;2023-01-31T07:07:38;19.07;;;10.83;;
10537;SDS011;5317;49.048;8.468;2023-01-31T07:10:06;15.37;;;9.97;;
10537;SDS011;5317;49.048;8.468;2023-01-31T07:12:34;15.63;;;10.90;;
10537;SDS011;5317;49.048;8.468;2023-01-31T07:15:01;15.50;;;10.52;;
10537;SDS011;5317;49.048;8.468;2023-01-31T07:17:29;17.85;;;11.40;;
10537;SDS011;5317;49.048;8.468;2023-01-31T07:19:57;18.42;;;11.82;;
10537;SDS011;5317;49.048;8.468;2023-01-31T07:22:24;18.13;;;10.97;;
10537;SDS011;5317;49.048;8.468;2023-01-31T07:24:51;17.67;;;12.20;;
10537;SDS011;5317;49.048;8.468;2023-01-31T07:27:17;18.75;;;11.25;;
10537;SDS011;5317;49.048;8.468;2023-01-31T07:29:44;16.85;;;10.35;;
10537;SDS011;5317;49.048;8.468;2023-01-31T07:32:11;17.10;;;11.80;;
10537;SDS011;5317;49.048;8.468;2023-01-31T07:34:39;19.80;;;11.60;;
10537;SDS011;5317;49.048;8.468;2023-01-31T07:37:06;17.43;;;11.00;;
10537;SDS011;5317;49.048;8.468;2023-01-31T07:39:35;15.47;;;10.30;;
10537;SDS011;5317;49.048;8.468;2023-01-31T07:42:01;14.87;;;9.83;;
10537;SDS011;5317;49.048;8.468;2023-01-31T07:44:28;17.35;;;9.20;;
10537;SDS011;5317;49.048;8.468;2023-01-31T07:46:55;15.45;;;10.30;;
10537;SDS011;5317;49.048;8.468;2023-01-31T07:49:22;14.73;;;10.35;;
10537;SDS011;5317;49.048;8.468;2023-01-31T07:51:51;15.30;;;9.05;;
10537;SDS011;5317;49.048;8.468;2023-01-31T07:54:18;15.03;;;9.93;;
10537;SDS011;5317;49.048;8.468;2023-01-31T07:56:46;14.20;;;9.40;;
10537;SDS011;5317;49.048;8.468;2023-01-31T07:59:13;15.37;;;9.57;;
10537;SDS011;5317;49.048;8.468;2023-01-31T08:01:41;12.75;;;8.93;;
10537;SDS011;5317;49.048;8.468;2023-01-31T08:04:25;18.58;;;9.48;;
10537;SDS011;5317;49.048;8.468;2023-01-31T08:06:53;15.52;;;10.15;;
10537;SDS011;5317;49.048;8.468;2023-01-31T08:09:21;13.90;;;10.20;;
10537;SDS011;5317;49.048;8.468;2023-01-31T08:11:48;14.05;;;9.50;;
10537;SDS011;5317;49.048;8.468;2023-01-31T08:14:16;14.73;;;9.90;;
10537;SDS011;5317;49.048;8.468;2023-01-31T08:16:47;12.27;;;9.70;;
10537;SDS011;5317;49.048;8.468;2023-01-31T08:19:14;13.93;;;9.73;;
10537;SDS011;5317;49.048;8.468;2023-01-31T08:21:41;11.77;;;8.70;;
10537;SDS011;5317;49.048;8.468;2023-01-31T08:24:09;15.40;;;9.73;;
10537;SDS011;5317;49.048;8.468;2023-01-31T08:26:36;13.70;;;10.07;;
10537;SDS011;5317;49.048;8.468;2023-01-31T08:29:03;13.53;;;9.50;;
10537;SDS011;5317;49.048;8.468;2023-01-31T08:31:30;14.35;;;9.40;;
10537;SDS011;5317;49.048;8.468;2023-01-31T08:33:57;13.40;;;8.57;;
10537;SDS011;5317;49.048;8.468;2023-01-31T08:36:26;11.40;;;8.43;;
10537;SDS011;5317;49.048;8.468;2023-01-31T08:39:03;14.60;;;8.80;;
10537;SDS011;5317;49.048;8.468;2023-01-31T08:41:31;15.10;;;9.18;;
10537;SDS011;5317;49.048;8.468;2023-01-31T08:43:59;9.25;;;7.35;;
10537;SDS011;5317;49.048;8.468;2023-01-31T08:46:29;13.38;;;8.13;;
10537;SDS011;5317;49.048;8.468;2023-01-31T08:48:57;9.50;;;7.33;;
10537;SDS011;5317;49.048;8.468;2023-01-31T08:51:24;11.93;;;8.10;;
10537;SDS011;5317;49.048;8.468;2023-01-31T08:53:51;12.43;;;7.47;;
10537;SDS011;5317;49.048;8.468;2023-01-31T08:56:20;12.03;;;7.60;;
10537;SDS011;5317;49.048;8.468;2023-01-31T08:58:50;12.55;;;8.30;;
10537;SDS011;5317;49.048;8.468;2023-01-31T09:01:18;14.10;;;8.90;;
10537;SDS011;5317;49.048;8.468;2023-01-31T09:03:46;11.13;;;8.05;;
10537;SDS011;5317;49.048;8.468;2023-01-31T09:06:20;11.45;;;7.60;;
10537;SDS011;5317;49.048;8.468;2023-01-31T09:08:49;12.00;;;8.00;;
10537;SDS011;5317;49.048;8.468;2023-01-31T09:11:16;11.70;;;7.77;;
10537;SDS011;5317;49.048;8.468;2023-01-31T09:13:45;11.55;;;7.25;;
10537;SDS011;5317;49.048;8.468;2023-01-31T09:16:15;11.77;;;8.47;;
10537;SDS011;5317;49.048;8.468;2023-01-31T09:18:42;10.63;;;8.40;;
10537;SDS011;5317;49.048;8.468;2023-01-31T09:21:09;13.47;;;7.90;;
10537;SDS011;5317;49.048;8.468;2023-01-31T09:23:38;10.80;;;7.47;;
10537;SDS011;5317;49.048;8.468;2023-01-31T09:26:05;11.33;;;7.97;;
10537;SDS011;5317;49.048;8.468;2023-01-31T09:28:32;11.03;;;7.60;;
10537;SDS011;5317;49.048;8.468;2023-01-31T09:31:04;12.73;;;7.77;;
10537;SDS011;5317;49.048;8.468;2023-01-31T09:33:32;15.90;;;8.38;;
10537;SDS011;5317;49.048;8.468;2023-01-31T09:36:01;12.87;;;8.07;;
10537;SDS011;5317;49.048;8.468;2023-01-31T09:38:29;15.50;;;8.13;;
10537;SDS011;5317;49.048;8.468;2023-01-31T09:40:56;9.95;;;7.60;;
10537;SDS011;5317;49.048;8.468;2023-01-31T09:43:26;11.67;;;7.33;;
10537;SDS011;5317;49.048;8.468;2023-01-31T09:45:57;10.27;;;7.83;;
10537;SDS011;5317;49.048;8.468;2023-01-31T09:48:29;11.53;;;9.13;;
10537;SDS011;5317;49.048;8.468;2023-01-31T09:51:00;10.38;;;7.53;;
10537;SDS011;5317;49.048;8.468;2023-01-31T09:53:29;15.40;;;7.53;;
10537;SDS011;5317;49.048;8.468;2023-01-31T09:56:04;19.67;;;8.77;;
10537;SDS011;5317;49.048;8.468;2023-01-31T09:58:41;13.80;;;8.43;;
10537;SDS011;5317;49.048;8.468;2023-01-31T10:01:17;12.43;;;7.77;;
10537;SDS011;5317;49.048;8.468;2023-01-31T10:04:00;12.45;;;8.48;;
10537;SDS011;5317;49.048;8.468;2023-01-31T10:06:41;10.77;;;8.00;;
10537;SDS011;5317;49.048;8.468;2023-01-31T10:09:15;13.53;;;7.87;;
10537;SDS011;5317;49.048;8.468;2023-01-31T10:11:48;10.77;;;7.80;;
10537;SDS011;5317;49.048;8.468;2023-01-31T10:14:21;13.80;;;7.50;;
10537;SDS011;5317;49.048;8.468;2023-01-31T10:16:56;11.70;;;7.33;;
10537;SDS011;5317;49.048;8.468;2023-01-31T10:19:29;11.60;;;7.43;;
10537;SDS011;5317;49.048;8.468;2023-01-31T10:22:04;11.97;;;8.07;;
10537;SDS011;5317;49.048;8.468;2023-01-31T10:24:38;10.90;;;7.27;;
10537;SDS011;5317;49.048;8.468;2023-01-31T10:27:10;10.20;;;6.83;;
10537;SDS011;5317;49.048;8.468;2023-01-31T10:29:42;11.90;;;6.60;;
10537;SDS011;5317;49.048;8.468;2023-01-31T10:32:16;15.00;;;7.97;;
10537;SDS011;5317;49.048;8.468;2023-01-31T10:34:48;8.63;;;6.43;;
10537;SDS011;5317;49.048;8.468;2023-01-31T10:37:20;10.47;;;6.73;;
10537;SDS011;5317;49.048;8.468;2023-01-31T10:39:56;12.27;;;7.23;;
10537;SDS011;5317;49.048;8.468;2023-01-31T10:42:28;8.70;;;7.03;;
10537;SDS011;5317;49.048;8.468;2023-01-31T10:44:57;11.30;;;7.40;;
10537;SDS011;5317;49.048;8.468;2023-01-31T10:47:30;11.67;;;7.13;;
10537;SDS011;5317;49.048;8.468;2023-01-31T10:50:00;10.30;;;7.17;;
10537;SDS011;5317;49.048;8.468;2023-01-31T10:52:41;11.07;;;6.90;;
10537;SDS011;5317;49.048;8.468;2023-01-31T10:55:27;14.13;;;7.23;;
10537;SDS011;5317;49.048;8.468;2023-01-31T10:58:08;10.77;;;7.10;;
10537;SDS011;5317;49.048;8.468;2023-01-31T11:00:39;9.63;;;7.17;;
10537;SDS011;5317;49.048;8.468;2023-01-31T11:03:08;9.43;;;6.57;;
10537;SDS011;5317;49.048;8.468;2023-01-31T11:05:38;7.90;;;6.60;;
10537;SDS011;5317;49.048;8.468;2023-01-31T11:08:21;9.57;;;6.20;;
10537;SDS011;5317;49.048;8.468;2023-01-31T11:10:55;7.93;;;6.17;;
10537;SDS011;5317;49.048;8.468;2023-01-31T11:13:23;9.00;;;5.90;;
10537;SDS011;5317;49.048;8.468;2023-01-31T11:15:51;9.23;;;6.13;;
10537;SDS011;5317;49.048;8.468;2023-01-31T11:18:24;10.70;;;6.03;;
10537;SDS011;5317;49.048;8.468;2023-01-31T11:20:55;9.87;;;6.10;;
10537;SDS011;5317;49.048;8.468;2023-01-31T11:23:24;7.13;;;5.43;;
10537;SDS011;5317;49.048;8.468;2023-01-31T11:25:53;9.17;;;5.93;;
10537;SDS011;5317;49.048;8.468;2023-01-31T11:28:22;8.57;;;6.10;;
10537;SDS011;5317;49.048;8.468;2023-01-31T11:30:54;7.03;;;5.20;;
10537;SDS011;5317;49.048;8.468;2023-01-31T11:36:22;9.33;;;5.23;;
10537;SDS011;5317;49.048;8.468;2023-01-31T11:38:50;9.40;;;5.77;;
10537;SDS011;5317;49.048;8.468;2023-01-31T11:41:25;8.17;;;5.80;;
10537;SDS011;5317;49.048;8.468;2023-01-31T11:44:06;8.00;;;6.13;;
10537;SDS011;5317;49.048;8.468;2023-01-31T11:46:43;8.50;;;5.60;;
10537;SDS011;5317;49.048;8.468;2023-01-31T11:49:16;13.70;;;6.27;;
10537;SDS011;5317;49.048;8.468;2023-01-31T11:51:49;9.50;;;6.43;;
10537;SDS011;5317;49.048;8.468;2023-01-31T11:54:17;9.33;;;6.13;;
10537;SDS011;5317;49.048;8.468;2023-01-31T11:56:48;9.70;;;5.83;;
10537;SDS011;5317;49.048;8.468;2023-01-31T11:59:17;10.53;;;5.93;;
10537;SDS011;5317;49.048;8.468;2023-01-31T12:01:48;9.97;;;6.27;;
10537;SDS011;5317;49.048;8.468;2023-01-31T12:04:17;10.50;;;6.30;;
10537;SDS011;5317;49.048;8.468;2023-01-31T12:06:57;10.23;;;5.97;;
10537;SDS011;5317;49.048;8.468;2023-01-31T12:09:26;8.30;;;5.37;;
10537;SDS011;5317;49.048;8.468;2023-01-31T12:11:55;9.80;;;5.60;;
10537;SDS011;5317;49.048;8.468;2023-01-31T12:14:24;8.10;;;6.70;;
10537;SDS011;5317;49.048;8.468;2023-01-31T12:17:04;9.80;;;6.70;;
10537;SDS011;5317;49.048;8.468;2023-01-31T12:19:41;7.70;;;5.17;;
10537;SDS011;5317;49.048;8.468;2023-01-31T12:22:21;8.80;;;6.20;;
10537;SDS011;5317;49.048;8.468;2023-01-31T12:24:55;7.27;;;5.63;;
10537;SDS011;5317;49.048;8.468;2023-01-31T12:27:34;9.30;;;5.40;;
10537;SDS011;5317;49.048;8.468;2023-01-31T12:30:15;7.50;;;5.63;;
10537;SDS011;5317;49.048;8.468;2023-01-31T12:32:56;6.10;;;5.20;;
10537;SDS011;5317;49.048;8.468;2023-01-31T12:35:44;10.93;;;5.43;;
10537;SDS011;5317;49.048;8.468;2023-01-31T12:38:27;6.53;;;5.07;;
10537;SDS011;5317;49.048;8.468;2023-01-31T12:41:10;8.40;;;5.23;;
10537;SDS011;5317;49.048;8.468;2023-01-31T12:43:56;9.20;;;4.83;;
10537;SDS011;5317;49.048;8.468;2023-01-31T12:46:35;7.37;;;5.27;;
10537;SDS011;5317;49.048;8.468;2023-01-31T12:52:24;7.67;;;5.40;;
10537;SDS011;5317;49.048;8.468;2023-01-31T12:55:05;9.00;;;5.23;;
10537;SDS011;5317;49.048;8.468;2023-01-31T12:57:45;10.87;;;5.43;;
10537;SDS011;5317;49.048;8.468;2023-01-31T13:00:23;6.90;;;5.00;;
10537;SDS011;5317;49.048;8.468;2023-01-31T13:06:04;9.33;;;5.57;;
10537;SDS011;5317;49.048;8.468;2023-01-31T13:08:39;7.47;;;5.07;;
10537;SDS011;5317;49.048;8.468;2023-01-31T13:11:11;8.50;;;4.67;;
10537;SDS011;5317;49.048;8.468;2023-01-31T13:13:42;7.23;;;4.33;;
10537;SDS011;5317;49.048;8.468;2023-01-31T13:16:15;8.30;;;4.87;;
10537;SDS011;5317;49.048;8.468;2023-01-31T13:18:53;10.50;;;5.30;;
10537;SDS011;5317;49.048;8.468;2023-01-31T13:21:23;8.13;;;4.87;;
10537;SDS011;5317;49.048;8.468;2023-01-31T13:23:54;6.00;;;4.33;;
10537;SDS011;5317;49.048;8.468;2023-01-31T13:26:31;6.97;;;4.97;;
10537;SDS011;5317;49.048;8.468;2023-01-31T13:29:06;8.27;;;5.43;;
10537;SDS011;5317;49.048;8.468;2023-01-31T13:31:41;6.93;;;4.27;;
10537;SDS011;5317;49.048;8.468;2023-01-31T13:34:13;8.83;;;4.90;;
10537;SDS011;5317;49.048;8.468;2023-01-31T13:36:44;7.20;;;4.67;;
10537;SDS011;5317;49.048;8.468;2023-01-31T13:39:16;6.90;;;4.87;;
10537;SDS011;5317;49.048;8.468;2023-01-31T13:41:53;7.57;;;4.80;;
10537;SDS011;5317;49.048;8.468;2023-01-31T13:44:23;8.10;;;5.43;;
10537;SDS011;5317;49.048;8.468;2023-01-31T13:46:50;6.23;;;4.70;;
10537;SDS011;5317;49.048;8.468;2023-01-31T13:49:22;5.40;;;4.30;;
10537;SDS011;5317;49.048;8.468;2023-01-31T13:51:52;6.57;;;4.10;;
10537;SDS011;5317;49.048;8.468;2023-01-31T13:54:22;6.33;;;3.90;;
10537;SDS011;5317;49.048;8.468;2023-01-31T13:56:54;6.13;;;4.40;;
10537;SDS011;5317;49.048;8.468;2023-01-31T13:59:23;6.33;;;4.47;;
10537;SDS011;5317;49.048;8.468;2023-01-31T14:01:52;6.77;;;4.80;;
10537;SDS011;5317;49.048;8.468;2023-01-31T14:04:23;8.20;;;3.73;;
10537;SDS011;5317;49.048;8.468;2023-01-31T14:15:52;5.67;;;4.17;;
10537;SDS011;5317;49.048;8.468;2023-01-31T14:18:39;7.93;;;4.63;;
10537;SDS011;5317;49.048;8.468;2023-01-31T14:30:34;9.40;;;4.70;;
10537;SDS011;5317;49.048;8.468;2023-01-31T14:33:15;9.23;;;4.97;;
10537;SDS011;5317;49.048;8.468;2023-01-31T14:39:29;7.20;;;4.23;;
10537;SDS011;5317;49.048;8.468;2023-01-31T14:45:30;8.27;;;4.27;;
10537;SDS011;5317;49.048;8.468;2023-01-31T14:51:07;7.93;;;4.43;;
10537;SDS011;5317;49.048;8.468;2023-01-31T14:53:58;7.13;;;4.57;;
10537;SDS011;5317;49.048;8.468;2023-01-31T14:56:53;8.17;;;4.77;;
10537;SDS011;5317;49.048;8.468;2023-01-31T14:59:37;6.53;;;4.30;;
10537;SDS011;5317;49.048;8.468;2023-01-31T15:05:15;7.80;;;5.03;;
10537;SDS011;5317;49.048;8.468;2023-01-31T15:07:57;7.40;;;4.53;;
10537;SDS011;5317;49.048;8.468;2023-01-31T15:13:32;7.67;;;5.10;;
10537;SDS011;5317;49.048;8.468;2023-01-31T15:16:18;7.73;;;5.63;;
10537;SDS011;5317;49.048;8.468;2023-01-31T15:18:49;8.23;;;4.97;;
10537;SDS011;5317;49.048;8.468;2023-01-31T15:21:24;7.47;;;4.57;;
10537;SDS011;5317;49.048;8.468;2023-01-31T15:23:54;8.10;;;5.37;;
10537;SDS011;5317;49.048;8.468;2023-01-31T15:26:22;6.27;;;4.90;;
10537;SDS011;5317;49.048;8.468;2023-01-31T15:28:53;6.43;;;4.30;;
10537;SDS011;5317;49.048;8.468;2023-01-31T15:31:24;7.80;;;5.10;;
10537;SDS011;5317;49.048;8.468;2023-01-31T15:33:58;5.57;;;4.20;;
10537;SDS011;5317;49.048;8.468;2023-01-31T15:36:31;6.70;;;4.40;;
10537;SDS011;5317;49.048;8.468;2023-01-31T15:39:03;6.83;;;4.47;;
10537;SDS011;5317;49.048;8.468;2023-01-31T15:41:42;5.93;;;4.80;;
10537;SDS011;5317;49.048;8.468;2023-01-31T15:44:10;10.17;;;5.77;;
10537;SDS011;5317;49.048;8.468;2023-01-31T15:46:41;5.50;;;4.67;;
10537;SDS011;5317;49.048;8.468;2023-01-31T15:52:01;8.37;;;6.27;;
10537;SDS011;5317;49.048;8.468;2023-01-31T15:54:29;5.27;;;4.43;;
10537;SDS011;5317;49.048;8.468;2023-01-31T15:56:56;6.17;;;4.67;;
10537;SDS011;5317;49.048;8.468;2023-01-31T15:59:24;7.20;;;5.23;;
10537;SDS011;5317;49.048;8.468;2023-01-31T16:01:55;9.27;;;5.20;;
10537;SDS011;5317;49.048;8.468;2023-01-31T16:04:27;7.27;;;4.60;;
10537;SDS011;5317;49.048;8.468;2023-01-31T16:06:55;7.87;;;4.50;;
10537;SDS011;5317;49.048;8.468;2023-01-31T16:09:23;6.17;;;4.50;;